Bay Area Logo

Salinas, CA Condo Real Estate Listings

40 Total Real Estate Listings * Click on table heading to sort
Date Posted Property Type Style Address Price Living Area Lot Size Price/Sq Ft.
2018-10-16 Condo 709 Garner Avenue Salinas, CA 93905 $235,000 864 sq. ft. 871 sq. ft. $272
2018-10-16 Condo 2392 Main Street Salinas, CA 93906 $235,888 820 sq. ft. 871 sq. ft. $288
2018-09-28 Condo 1512 Del Monte Avenue Salinas, CA 93905 $395,000 1,256 sq. ft. 4,356 sq. ft. $314
2018-09-26 Condo 2404 Main Street Salinas, CA 93906 $255,000 932 sq. ft. 1,307 sq. ft. $274
2018-09-25 Condo 1058 Padre Drive Salinas, CA 93901 $380,000 936 sq. ft. $406
2018-09-22 Condo 79 Castro Street Salinas, CA 93906 $349,000 1,204 sq. ft. 1,307 sq. ft. $290
2018-09-21 Condo 79 Castro Street Salinas, CA 93906 $340,000 1,200 sq. ft. 1,307 sq. ft. $283
2018-09-21 Condo 79 Castro Street Salinas, CA 93906 $340,000 1,204 sq. ft. 1,307 sq. ft. $282
2018-09-21 Condo 79 Castro Street Salinas, CA 93906 $349,000 1,200 sq. ft. 1,307 sq. ft. $291
2018-09-21 Condo 918 Acosta Plaza Salinas, CA 93905 $185,000 1,034 sq. ft. 871 sq. ft. $179
2018-09-21 Condo 77 Castro Street Salinas, CA 93906 $330,000 1,200 sq. ft. 1,307 sq. ft. $275
2018-09-21 Condo 77 Castro Street Salinas, CA 93906 $335,000 1,229 sq. ft. 1,307 sq. ft. $273
2018-09-21 Condo 77 Castro Street Salinas, CA 93906 $330,000 1,200 sq. ft. 1,307 sq. ft. $275
2018-09-20 Condo 77 Castro Street Salinas, CA 93906 $330,000 1,204 sq. ft. 1,307 sq. ft. $274
2018-09-20 Condo 77 Castro Street Salinas, CA 93906 $330,000 1,204 sq. ft. 1,307 sq. ft. $274
2018-09-13 Condo 2438 Main Street Salinas, CA 93906 $249,900 932 sq. ft. 871 sq. ft. $268
2018-09-12 Condo 23799 Monterey Salinas Highway Salinas, CA 93908 $650,000 1,802 sq. ft. 2,614 sq. ft. $361
2018-09-12 Condo 2392 Main Street Salinas, CA 93906 $225,000 820 sq. ft. 871 sq. ft. $274
2018-09-11 Condo 2446 Main Street Salinas, CA 93906 $265,000 1,150 sq. ft. 1,307 sq. ft. $230
2018-08-26 Condo Custom 23799 Salinas Mty Highway Salinas, CA 93908 $679,900 1,815 sq. ft. 2,614 sq. ft. $375
2018-08-23 Condo 1253 Los Olivos Drive Salinas, CA 93901 $415,000 1,536 sq. ft. 1,742 sq. ft. $270
2018-08-22 Condo Traditional 1827 Cherokee Drive Salinas, CA 93906 $255,000 875 sq. ft. 871 sq. ft. $291
2018-08-21 Condo 1053 Riker Street Salinas, CA 93901 $320,000 766 sq. ft. 270,508 sq. ft. $418
2018-08-14 Condo 1253 Los Olivos Drive Salinas, CA 93901 $409,000 1,536 sq. ft. 1,742 sq. ft. $266
2018-08-13 Condo 914 Acosta Plaza Salinas, CA 93905 $225,000 1,380 sq. ft. 1,307 sq. ft. $163
2018-08-13 Condo 150 Madeira Avenue Salinas, CA 93905 $260,000 1,310 sq. ft. 871 sq. ft. $198
2018-07-18 Condo 2432 Main Street Salinas, CA 93906 $195,000 1,151 sq. ft. 1,307 sq. ft. $169
2018-05-10 Condo 208 Martella Street Salinas, CA 93901 $362,000 1,553 sq. ft. 1,307 sq. ft. $233
2017-06-21 Condo 409 Tyler Pl O Salinas, CA 93906 $229,000 884 sq. ft. 767 sq. ft. $259
2017-06-21 Condo 405 Tyler Pl F Salinas, CA 93906 $249,900 932 sq. ft. 976 sq. ft. $268
2017-06-07 Condo 23799 Monterey Salinas Hwy 9 Salinas, CA 93908 $645,000 1,403 sq. ft. 2,335 sq. ft. $460
2017-06-07 Condo 919 Acosta Plz 32 Salinas, CA 93905 $190,000 1,034 sq. ft. 862 sq. ft. $184
2017-06-06 Condo 144 Nissen Rd 4 Salinas, CA 93901 $490,000 1,341 sq. ft. 2,940 sq. ft. $365
2017-06-03 Condo 19219 Creekside Ln Salinas, CA 93908 $530,000 1,510 sq. ft. 1,786 sq. ft. $351
2017-05-08 Condo 1021 Polk St 19 Salinas, CA 93906 $365,000 1,359 sq. ft. 1,437 sq. ft. $269
2017-04-27 Condo 1253 Nogal Dr 17d Salinas, CA 93905 $314,900 1,513 sq. ft. 1,176 sq. ft. $208
2017-03-24 Condo 1295 Nogal Dr B Salinas, CA 93905 $308,000 1,513 sq. ft. 1,133 sq. ft. $204
2017-03-15 Condo Traditional 1310 Primavera St 110 Salinas, CA 93901 $397,000 1,580 sq. ft. 1,568 sq. ft. $251
2017-03-07 Condo Contemporary 1811 Cherokee Dr 1 Salinas, CA 93906 $208,000 924 sq. ft. 828 sq. ft. $225
2016-05-05 Condo Traditional 916 Acosta Plz 20 Salinas, CA 93905 $190,000 1,034 sq. ft. 784 sq. ft. $184